createdAt,value
2018-09-27T00:00:51.893Z,8.60
2018-09-27T00:03:18.894Z,10.70
2018-09-27T00:05:45.923Z,10.60
2018-09-27T00:08:12.893Z,10.50
2018-09-27T00:10:39.889Z,10.40
2018-09-27T00:13:06.858Z,10.50
2018-09-27T00:15:33.846Z,10.40
2018-09-27T00:18:00.845Z,10.40
2018-09-27T00:20:27.800Z,10.50
2018-09-27T00:22:54.767Z,10.40
2018-09-27T00:25:21.754Z,10.30
2018-09-27T00:27:48.728Z,10.30
2018-09-27T00:30:15.675Z,10.30
2018-09-27T00:32:42.650Z,10.40
2018-09-27T00:35:09.630Z,10.20
2018-09-27T00:37:36.615Z,10.40
2018-09-27T00:40:03.825Z,10.20
2018-09-27T00:42:30.812Z,10.30
2018-09-27T00:44:57.773Z,10.40
2018-09-27T00:47:24.764Z,10.30
2018-09-27T00:49:51.721Z,10.20
2018-09-27T00:52:18.688Z,10.00
2018-09-27T00:54:45.686Z,10.10
2018-09-27T00:57:13.160Z,10.00
2018-09-27T00:59:40.125Z,10.00
2018-09-27T01:02:07.102Z,10.00
2018-09-27T01:04:34.068Z,9.90
2018-09-27T01:07:01.046Z,10.00
2018-09-27T01:09:28.022Z,10.10
2018-09-27T01:11:54.986Z,9.90
2018-09-27T01:14:21.955Z,9.80
2018-09-27T01:16:49.055Z,9.90
2018-09-27T01:19:16.153Z,9.90
2018-09-27T01:21:43.148Z,9.70
2018-09-27T01:24:10.145Z,9.60
2018-09-27T01:26:37.108Z,9.50
2018-09-27T01:29:04.131Z,9.30
2018-09-27T01:31:31.143Z,9.50
2018-09-27T01:33:58.128Z,9.60
2018-09-27T01:36:25.120Z,9.90
2018-09-27T01:38:52.141Z,9.50
2018-09-27T01:41:19.149Z,9.40
2018-09-27T01:43:46.107Z,9.50
2018-09-27T01:46:13.119Z,9.70
2018-09-27T01:48:40.229Z,9.70
2018-09-27T01:51:07.198Z,9.60
2018-09-27T01:53:34.207Z,9.40
2018-09-27T01:56:01.249Z,9.50
2018-09-27T01:58:28.561Z,9.50
2018-09-27T02:00:55.595Z,9.50
2018-09-27T02:03:22.550Z,9.60
2018-09-27T02:05:49.561Z,9.70
2018-09-27T02:08:16.560Z,9.60
2018-09-27T02:10:43.547Z,9.60
2018-09-27T02:13:10.560Z,9.70
2018-09-27T02:15:37.667Z,9.70
2018-09-27T02:18:04.693Z,9.50
2018-09-27T02:20:31.632Z,9.60
2018-09-27T02:22:58.606Z,9.50
2018-09-27T02:25:25.585Z,9.30
2018-09-27T02:27:52.612Z,9.30
2018-09-27T02:30:19.623Z,9.30
2018-09-27T02:32:46.606Z,9.40
2018-09-27T02:35:14.527Z,9.40
2018-09-27T02:37:41.512Z,7.60
2018-09-27T02:40:29.858Z,9.10
2018-09-27T02:42:56.846Z,8.90
2018-09-27T02:45:23.801Z,8.90
2018-09-27T02:47:50.770Z,9.00
2018-09-27T02:50:17.738Z,9.00
2018-09-27T02:52:44.902Z,9.10
2018-09-27T02:55:11.926Z,8.90
2018-09-27T02:57:39.262Z,8.80
2018-09-27T03:00:06.662Z,8.80
2018-09-27T03:02:33.691Z,8.90
2018-09-27T03:05:00.614Z,8.90
2018-09-27T03:07:27.578Z,8.90
2018-09-27T03:09:54.537Z,9.00
2018-09-27T03:12:21.505Z,9.20
2018-09-27T03:14:48.469Z,9.10
2018-09-27T03:17:15.416Z,9.20
2018-09-27T03:19:42.372Z,9.20
2018-09-27T03:22:09.321Z,9.20
2018-09-27T03:24:36.270Z,9.10
2018-09-27T03:27:03.260Z,9.20
2018-09-27T03:29:30.226Z,9.10
2018-09-27T03:31:57.215Z,8.90
2018-09-27T03:34:24.214Z,8.80
2018-09-27T03:36:51.154Z,8.90
2018-09-27T03:39:18.132Z,9.00
2018-09-27T03:41:45.081Z,9.00
2018-09-27T03:44:12.058Z,9.10
2018-09-27T03:46:39.027Z,9.20
2018-09-27T03:49:05.981Z,9.30
2018-09-27T03:51:32.946Z,9.10
2018-09-27T03:53:59.913Z,9.10
2018-09-27T03:56:29.178Z,9.20
2018-09-27T03:58:57.227Z,9.10
2018-09-27T04:01:24.539Z,9.10
2018-09-27T04:03:51.497Z,9.10
2018-09-27T04:06:18.449Z,9.10
2018-09-27T04:08:45.403Z,9.10
2018-09-27T04:11:12.388Z,9.00
2018-09-27T04:13:39.339Z,9.00
2018-09-27T04:16:06.318Z,9.00
2018-09-27T04:18:33.285Z,8.90
2018-09-27T04:21:00.237Z,8.70
2018-09-27T04:23:27.188Z,8.50
2018-09-27T04:25:54.146Z,8.70
2018-09-27T04:28:21.614Z,8.60
2018-09-27T04:30:48.581Z,8.50
2018-09-27T04:33:15.560Z,8.40
2018-09-27T04:35:42.526Z,8.50
2018-09-27T04:38:09.509Z,8.50
2018-09-27T04:40:36.498Z,8.50
2018-09-27T04:43:03.811Z,6.30
2018-09-27T04:45:30.771Z,8.50
2018-09-27T04:47:57.726Z,8.50
2018-09-27T04:50:24.698Z,8.50
2018-09-27T04:52:51.705Z,8.50
2018-09-27T04:55:18.647Z,8.60
2018-09-27T04:57:45.659Z,8.10
2018-09-27T05:00:12.663Z,6.30
2018-09-27T05:02:40.273Z,8.90
2018-09-27T05:05:07.370Z,8.80
2018-09-27T05:07:34.362Z,9.00
2018-09-27T05:10:01.354Z,9.00
2018-09-27T05:12:28.373Z,9.00
2018-09-27T05:14:55.397Z,8.90
2018-09-27T05:17:22.392Z,8.90
2018-09-27T05:19:49.372Z,9.00
2018-09-27T05:22:16.386Z,9.00
2018-09-27T05:24:43.476Z,9.00
2018-09-27T05:27:10.519Z,9.10
2018-09-27T05:29:37.479Z,8.20
2018-09-27T05:32:04.885Z,9.10
2018-09-27T05:34:31.863Z,9.00
2018-09-27T05:36:58.840Z,9.00
2018-09-27T05:39:25.891Z,9.00
2018-09-27T05:41:52.831Z,8.90
2018-09-27T05:44:19.818Z,8.80
2018-09-27T05:46:46.825Z,8.90
2018-09-27T05:49:13.814Z,8.80
2018-09-27T05:51:40.936Z,8.90
2018-09-27T05:54:07.787Z,9.10
2018-09-27T05:56:34.787Z,9.10
2018-09-27T05:59:01.771Z,9.10
2018-09-27T06:01:28.780Z,9.30
2018-09-27T06:03:56.177Z,9.20
2018-09-27T06:06:23.182Z,9.30
2018-09-27T06:08:50.385Z,8.20
2018-09-27T06:11:17.457Z,9.30
2018-09-27T06:13:44.421Z,9.30
2018-09-27T06:16:11.447Z,9.20
2018-09-27T06:18:38.455Z,9.20
2018-09-27T06:21:05.592Z,9.40
2018-09-27T06:23:32.585Z,9.30
2018-09-27T06:25:59.629Z,9.40
2018-09-27T06:28:26.599Z,9.50
2018-09-27T06:30:53.582Z,9.60
2018-09-27T06:33:20.556Z,9.80
2018-09-27T06:35:47.567Z,9.70
2018-09-27T06:38:14.565Z,10.00
2018-09-27T06:40:41.550Z,10.10
2018-09-27T06:43:08.528Z,10.30
2018-09-27T06:45:35.658Z,10.50
2018-09-27T06:48:02.670Z,10.70
2018-09-27T06:52:56.668Z,11.10
2018-09-27T06:55:24.043Z,11.40
2018-09-27T06:57:50.657Z,11.60
2018-09-27T07:00:17.656Z,11.90
2018-09-27T07:02:44.749Z,12.10
2018-09-27T07:05:11.970Z,12.10
2018-09-27T07:07:38.972Z,12.50
2018-09-27T07:10:05.993Z,12.40
2018-09-27T07:12:33.117Z,12.40
2018-09-27T07:15:00.005Z,11.30
2018-09-27T07:17:26.982Z,12.70
2018-09-27T07:19:53.974Z,12.80
2018-09-27T07:22:20.968Z,13.00
2018-09-27T07:24:47.949Z,13.10
2018-09-27T07:27:14.948Z,13.20
2018-09-27T07:29:41.955Z,13.50
2018-09-27T07:32:08.974Z,13.50
2018-09-27T07:34:35.967Z,13.60
2018-09-27T07:37:02.985Z,13.70
2018-09-27T07:39:29.962Z,13.70
2018-09-27T07:41:56.941Z,13.90
2018-09-27T07:44:23.975Z,14.00
2018-09-27T07:46:50.957Z,14.20
2018-09-27T07:49:18.008Z,14.40
2018-09-27T07:51:45.118Z,14.50
2018-09-27T07:54:12.163Z,14.70
2018-09-27T07:56:39.161Z,14.80
2018-09-27T07:59:06.137Z,14.70
2018-09-27T08:01:33.164Z,13.70
2018-09-27T08:04:00.200Z,15.00
2018-09-27T08:06:28.285Z,15.10
2018-09-27T08:08:55.289Z,15.10
2018-09-27T08:11:22.850Z,15.40
2018-09-27T08:13:49.321Z,15.60
2018-09-27T08:16:16.317Z,15.90
2018-09-27T08:18:43.306Z,16.00
2018-09-27T08:21:10.433Z,16.10
2018-09-27T08:23:37.290Z,16.30
2018-09-27T08:26:04.289Z,16.60
2018-09-27T08:28:31.291Z,16.50
2018-09-27T08:30:58.383Z,16.60
2018-09-27T08:33:25.294Z,15.50
2018-09-27T08:35:52.289Z,17.20
2018-09-27T08:38:19.315Z,17.40
2018-09-27T08:40:46.253Z,17.50
2018-09-27T08:43:13.259Z,17.80
2018-09-27T08:45:40.321Z,18.10
2018-09-27T08:48:07.215Z,18.30
2018-09-27T08:50:34.213Z,18.20
2018-09-27T08:53:01.458Z,18.40
2018-09-27T08:55:28.465Z,18.50
2018-09-27T08:57:55.446Z,18.70
2018-09-27T09:00:22.418Z,19.10
2018-09-27T09:02:49.411Z,19.60
2018-09-27T09:05:16.409Z,19.90
2018-09-27T09:07:43.985Z,21.30
2018-09-27T09:10:11.038Z,28.20
2018-09-27T09:12:38.045Z,25.00
2018-09-27T09:15:05.040Z,27.80
2018-09-27T09:17:32.016Z,31.10
2018-09-27T09:19:59.025Z,31.40
2018-09-27T09:22:26.015Z,31.40
2018-09-27T09:24:53.008Z,32.10
2018-09-27T09:27:20.012Z,31.60
2018-09-27T09:29:47.062Z,32.30
2018-09-27T09:32:15.632Z,32.10
2018-09-27T09:34:42.661Z,31.70
2018-09-27T09:37:09.647Z,31.80
2018-09-27T09:39:36.625Z,29.20
2018-09-27T09:42:03.654Z,31.60
2018-09-27T09:44:30.630Z,32.30
2018-09-27T09:46:57.630Z,32.40
2018-09-27T09:49:24.702Z,32.20
2018-09-27T09:51:51.735Z,32.40
2018-09-27T09:54:18.738Z,31.90
2018-09-27T09:56:45.742Z,31.70
2018-09-27T09:59:12.753Z,32.20
2018-09-27T10:01:39.848Z,32.10
2018-09-27T10:04:06.846Z,28.80
2018-09-27T10:06:33.860Z,30.60
2018-09-27T10:09:01.091Z,29.60
2018-09-27T10:11:28.121Z,29.30
2018-09-27T10:13:55.129Z,28.90
2018-09-27T10:16:22.141Z,28.60
2018-09-27T10:18:49.154Z,28.40
2018-09-27T10:21:16.151Z,28.10
2018-09-27T10:23:43.149Z,28.10
2018-09-27T10:26:10.150Z,28.10
2018-09-27T10:28:37.146Z,28.80
2018-09-27T10:31:04.151Z,29.00
2018-09-27T10:33:31.196Z,28.60
2018-09-27T10:35:58.181Z,28.40
2018-09-27T10:38:25.978Z,29.20
2018-09-27T10:40:53.088Z,29.60
2018-09-27T10:43:20.042Z,29.60
2018-09-27T10:45:47.058Z,29.50
2018-09-27T10:48:14.026Z,29.70
2018-09-27T10:50:40.969Z,29.80
2018-09-27T10:53:08.462Z,28.90
2018-09-27T10:55:35.439Z,28.40
2018-09-27T10:58:02.384Z,28.50
2018-09-27T11:00:29.410Z,29.20
2018-09-27T11:02:56.393Z,29.70
2018-09-27T11:05:23.423Z,29.60
2018-09-27T11:10:30.687Z,30.20
2018-09-27T11:12:57.657Z,29.90
2018-09-27T11:15:24.608Z,26.90
2018-09-27T11:17:51.573Z,29.60
2018-09-27T11:20:18.555Z,30.10
2018-09-27T11:22:45.514Z,30.30
2018-09-27T11:25:12.508Z,30.10
2018-09-27T11:27:39.529Z,29.50
2018-09-27T11:30:28.834Z,29.70
2018-09-27T11:32:55.812Z,29.90
2018-09-27T11:35:22.758Z,29.40
2018-09-27T11:37:49.718Z,29.10
2018-09-27T11:40:16.674Z,29.40
2018-09-27T11:42:43.679Z,29.20
2018-09-27T11:45:10.573Z,29.80
2018-09-27T11:47:37.530Z,29.90
2018-09-27T11:50:04.743Z,29.80
2018-09-27T11:52:31.647Z,29.70
2018-09-27T11:54:58.682Z,30.00
2018-09-27T11:57:25.594Z,29.60
2018-09-27T11:59:52.631Z,30.10
2018-09-27T12:02:19.684Z,30.50
2018-09-27T12:04:46.631Z,30.50
2018-09-27T12:07:13.617Z,30.30
2018-09-27T12:09:40.586Z,30.30
2018-09-27T12:12:08.008Z,30.50
2018-09-27T12:14:35.014Z,30.40
2018-09-27T12:17:01.921Z,30.50
2018-09-27T12:19:29.225Z,30.20
2018-09-27T12:21:56.346Z,29.70
2018-09-27T12:24:23.278Z,29.50
2018-09-27T12:26:50.221Z,29.60
2018-09-27T12:29:17.191Z,30.00
2018-09-27T12:31:44.198Z,29.90
2018-09-27T12:34:11.287Z,29.80
2018-09-27T12:36:38.196Z,29.70
2018-09-27T12:39:06.870Z,29.60
2018-09-27T12:41:33.859Z,27.30
2018-09-27T12:44:00.782Z,29.50
2018-09-27T12:46:27.779Z,28.90
2018-09-27T12:48:54.741Z,28.90
2018-09-27T12:51:21.813Z,29.00
2018-09-27T12:53:48.654Z,29.10
2018-09-27T12:56:15.637Z,29.20
2018-09-27T12:58:42.701Z,29.10
2018-09-27T13:01:09.763Z,29.00
2018-09-27T13:03:36.649Z,28.80
2018-09-27T13:06:03.662Z,28.70
2018-09-27T13:08:30.647Z,26.20
2018-09-27T13:10:58.930Z,28.30
2018-09-27T13:13:28.463Z,25.80
2018-09-27T13:15:56.874Z,27.80
2018-09-27T13:18:24.342Z,27.80
2018-09-27T13:20:52.212Z,27.80
2018-09-27T13:23:19.698Z,27.60
2018-09-27T13:25:46.708Z,27.70
2018-09-27T13:28:13.610Z,27.60
2018-09-27T13:30:40.550Z,27.30
2018-09-27T13:33:07.639Z,27.30
2018-09-27T13:35:34.557Z,27.00
2018-09-27T13:38:01.519Z,27.00
2018-09-27T13:40:28.478Z,27.10
2018-09-27T13:42:55.453Z,27.10
2018-09-27T13:45:22.394Z,22.90
2018-09-27T13:47:49.372Z,26.90
2018-09-27T13:50:16.326Z,26.90
2018-09-27T13:52:43.290Z,26.80
2018-09-27T13:55:10.326Z,26.80
2018-09-27T13:57:37.229Z,26.80
2018-09-27T14:00:04.184Z,26.70
2018-09-27T14:02:31.203Z,23.90
2018-09-27T14:04:58.176Z,26.60
2018-09-27T14:07:25.122Z,26.50
2018-09-27T14:09:52.060Z,23.60
2018-09-27T14:12:19.038Z,26.30
2018-09-27T14:14:46.583Z,26.30
2018-09-27T14:17:13.525Z,26.20
2018-09-27T14:19:40.500Z,26.10
2018-09-27T14:22:07.464Z,26.10
2018-09-27T14:24:34.412Z,25.90
2018-09-27T14:27:01.378Z,26.10
2018-09-27T14:29:28.335Z,26.00
2018-09-27T14:31:55.327Z,26.00
2018-09-27T14:34:22.325Z,26.00
2018-09-27T14:36:49.289Z,25.80
2018-09-27T14:39:16.304Z,25.80
2018-09-27T14:41:43.294Z,25.70
2018-09-27T14:44:10.202Z,25.60
2018-09-27T14:46:37.181Z,25.60
2018-09-27T14:49:04.321Z,25.60
2018-09-27T14:51:31.274Z,25.50
2018-09-27T14:53:58.417Z,25.50
2018-09-27T14:56:25.412Z,25.50
2018-09-27T14:58:52.398Z,25.30
2018-09-27T15:01:19.373Z,25.30
2018-09-27T15:03:46.356Z,25.20
2018-09-27T15:06:13.346Z,25.10
2018-09-27T15:08:40.465Z,25.10
2018-09-27T15:11:07.434Z,25.00
2018-09-27T15:13:34.690Z,25.00
2018-09-27T15:16:02.143Z,24.80
2018-09-27T15:18:29.307Z,24.90
2018-09-27T15:20:56.343Z,24.80
2018-09-27T15:23:23.572Z,24.80
2018-09-27T15:25:50.658Z,24.40
2018-09-27T15:28:17.730Z,22.00
2018-09-27T15:30:44.907Z,21.40
2018-09-27T15:33:12.035Z,22.00
2018-09-27T15:35:39.170Z,24.60
2018-09-27T15:38:06.231Z,24.50
2018-09-27T15:40:33.299Z,24.40
2018-09-27T15:43:00.359Z,24.40
2018-09-27T15:45:27.470Z,23.20
2018-09-27T15:47:54.402Z,24.40
2018-09-27T15:50:21.451Z,24.20
2018-09-27T15:52:48.521Z,21.10
2018-09-27T15:55:15.474Z,23.20
2018-09-27T15:57:42.481Z,24.00
2018-09-27T16:00:09.639Z,24.00
2018-09-27T16:02:36.731Z,23.90
2018-09-27T16:05:03.751Z,23.70
2018-09-27T16:07:30.702Z,21.00
2018-09-27T16:09:57.727Z,23.80
2018-09-27T16:12:24.674Z,23.70
2018-09-27T16:14:51.864Z,23.60
2018-09-27T16:17:18.929Z,23.50
2018-09-27T16:19:46.027Z,23.60
2018-09-27T16:22:13.069Z,23.40
2018-09-27T16:24:40.236Z,23.40
2018-09-27T16:27:07.197Z,23.40
2018-09-27T16:29:34.200Z,23.30
2018-09-27T16:32:01.183Z,23.30
2018-09-27T16:34:28.217Z,23.20
2018-09-27T16:36:55.165Z,23.10
2018-09-27T16:39:22.162Z,23.10
2018-09-27T16:41:49.110Z,23.00
2018-09-27T16:44:16.069Z,22.80
2018-09-27T16:46:43.658Z,22.60
2018-09-27T16:49:10.767Z,22.40
2018-09-27T16:51:37.684Z,20.10
2018-09-27T16:54:10.343Z,20.10
2018-09-27T16:56:37.388Z,22.20
2018-09-27T16:59:04.347Z,22.00
2018-09-27T17:01:31.358Z,21.90
2018-09-27T17:03:58.363Z,21.80
2018-09-27T17:06:25.341Z,21.70
2018-09-27T17:08:52.315Z,21.50
2018-09-27T17:11:19.629Z,21.40
2018-09-27T17:13:46.594Z,21.20
2018-09-27T17:16:13.567Z,21.00
2018-09-27T17:18:40.871Z,21.00
2018-09-27T17:21:07.758Z,21.00
2018-09-27T17:23:34.986Z,20.40
2018-09-27T17:26:01.914Z,24.20
2018-09-27T17:28:28.902Z,20.90
2018-09-27T17:30:55.916Z,20.80
2018-09-27T17:33:22.887Z,20.90
2018-09-27T17:35:50.203Z,20.80
2018-09-27T17:38:18.113Z,20.60
2018-09-27T17:40:45.264Z,20.50
2018-09-27T17:43:12.265Z,18.40
2018-09-27T17:45:39.327Z,20.30
2018-09-27T17:48:06.372Z,17.10
2018-09-27T17:50:33.478Z,20.30
2018-09-27T17:53:00.661Z,19.80
2018-09-27T17:55:27.838Z,20.00
2018-09-27T17:57:54.881Z,21.30
2018-09-27T18:00:21.935Z,20.00
2018-09-27T18:02:48.928Z,17.20
2018-09-27T18:05:19.348Z,19.50
2018-09-27T18:07:43.045Z,15.70
2018-09-27T18:10:10.013Z,18.30
2018-09-27T18:12:36.962Z,19.10
2018-09-27T18:15:04.150Z,18.90
2018-09-27T18:17:31.159Z,18.80
2018-09-27T18:19:59.008Z,18.90
2018-09-27T18:22:26.073Z,18.80
2018-09-27T18:24:53.022Z,18.60
2018-09-27T18:27:20.040Z,18.30
2018-09-27T18:29:46.995Z,18.30
2018-09-27T18:32:13.946Z,18.30
2018-09-27T18:34:41.012Z,18.20
2018-09-27T18:37:07.989Z,18.20
2018-09-27T18:39:34.976Z,18.10
2018-09-27T18:42:01.922Z,18.10
2018-09-27T18:44:28.911Z,17.90
2018-09-27T18:46:55.876Z,17.80
2018-09-27T18:49:22.825Z,17.60
2018-09-27T18:51:49.792Z,17.50
2018-09-27T18:54:16.775Z,17.50
2018-09-27T18:56:43.729Z,17.40
2018-09-27T18:59:10.734Z,17.30
2018-09-27T19:01:38.031Z,17.20
2018-09-27T19:04:05.244Z,17.10
2018-09-27T19:06:32.247Z,17.10
2018-09-27T19:08:59.193Z,17.10
2018-09-27T19:11:26.170Z,17.00
2018-09-27T19:13:53.161Z,17.10
2018-09-27T19:16:20.216Z,17.10
2018-09-27T19:18:47.207Z,17.00
2018-09-27T19:21:14.477Z,17.10
2018-09-27T19:23:41.507Z,17.10
2018-09-27T19:26:08.556Z,17.00
2018-09-27T19:28:35.511Z,17.10
2018-09-27T19:31:02.546Z,17.00
2018-09-27T19:33:29.529Z,16.90
2018-09-27T19:35:56.531Z,16.70
2018-09-27T19:38:23.505Z,16.70
2018-09-27T19:40:50.452Z,16.70
2018-09-27T19:43:17.429Z,14.20
2018-09-27T19:45:44.395Z,16.50
2018-09-27T19:48:11.345Z,16.40
2018-09-27T19:50:38.350Z,16.40
2018-09-27T19:53:05.446Z,15.30
2018-09-27T19:55:32.539Z,16.10
2018-09-27T19:57:59.571Z,15.90
2018-09-27T20:00:26.557Z,15.80
2018-09-27T20:02:53.519Z,15.90
2018-09-27T20:05:20.513Z,15.90
2018-09-27T20:07:47.461Z,16.00
2018-09-27T20:10:14.485Z,16.00
2018-09-27T20:12:41.412Z,16.00
2018-09-27T20:15:08.386Z,16.00
2018-09-27T20:17:35.362Z,15.90
2018-09-27T20:20:02.330Z,16.00
2018-09-27T20:22:32.080Z,16.00
2018-09-27T20:24:59.049Z,16.00
2018-09-27T20:27:26.066Z,15.90
2018-09-27T20:29:53.038Z,15.90
2018-09-27T20:32:20.028Z,15.90
2018-09-27T20:34:47.062Z,15.70
2018-09-27T20:37:14.006Z,13.60
2018-09-27T20:39:41.221Z,15.60
2018-09-27T20:42:08.173Z,15.70
2018-09-27T20:44:35.149Z,15.60
2018-09-27T20:47:02.096Z,15.50
2018-09-27T20:49:29.093Z,15.50
2018-09-27T20:51:56.050Z,15.50
2018-09-27T20:54:23.006Z,15.50
2018-09-27T20:56:49.992Z,15.40
2018-09-27T20:59:17.020Z,15.30
2018-09-27T21:01:43.974Z,15.30
2018-09-27T21:04:11.020Z,15.10
2018-09-27T21:06:38.067Z,15.10
2018-09-27T21:09:07.555Z,15.10
2018-09-27T21:11:34.540Z,15.10
2018-09-27T21:14:01.566Z,15.00
2018-09-27T21:16:28.505Z,14.90
2018-09-27T21:18:55.528Z,14.90
2018-09-27T21:21:22.518Z,14.90
2018-09-27T21:23:52.845Z,15.00
2018-09-27T21:26:20.111Z,14.90
2018-09-27T21:28:47.104Z,15.00
2018-09-27T21:31:14.070Z,11.10
2018-09-27T21:33:41.739Z,12.30
2018-09-27T21:36:08.783Z,14.90
2018-09-27T21:38:35.940Z,15.00
2018-09-27T21:41:02.935Z,14.90
2018-09-27T21:43:29.902Z,14.80
2018-09-27T21:45:56.871Z,13.90
2018-09-27T21:48:23.842Z,14.70
2018-09-27T21:50:51.337Z,14.70
2018-09-27T21:53:18.272Z,15.10
2018-09-27T21:55:48.960Z,14.60
2018-09-27T21:58:15.905Z,14.50
2018-09-27T22:00:42.925Z,14.40
2018-09-27T22:03:09.901Z,14.40
2018-09-27T22:05:36.932Z,13.40
2018-09-27T22:08:03.837Z,14.30
2018-09-27T22:10:30.829Z,10.50
2018-09-27T22:12:57.818Z,14.20
2018-09-27T22:15:24.765Z,14.20
2018-09-27T22:17:51.766Z,14.10
2018-09-27T22:20:18.718Z,14.00
2018-09-27T22:22:45.682Z,14.10
2018-09-27T22:25:13.061Z,13.70
2018-09-27T22:27:40.008Z,14.00
2018-09-27T22:30:07.466Z,13.90
2018-09-27T22:32:34.441Z,14.00
2018-09-27T22:35:01.398Z,13.90
2018-09-27T22:37:28.410Z,13.80
2018-09-27T22:39:55.402Z,13.60
2018-09-27T22:42:22.374Z,13.70
2018-09-27T22:44:49.313Z,13.60
2018-09-27T22:47:16.310Z,13.50
2018-09-27T22:49:43.278Z,13.50
2018-09-27T22:52:10.237Z,13.60
2018-09-27T22:54:37.189Z,13.50
2018-09-27T22:57:04.144Z,13.40
2018-09-27T22:59:31.103Z,13.50
2018-09-27T23:01:58.074Z,13.70
2018-09-27T23:04:25.028Z,13.70
2018-09-27T23:06:51.974Z,13.70
2018-09-27T23:09:18.930Z,13.70
2018-09-27T23:11:45.897Z,13.70
2018-09-27T23:14:12.875Z,13.60
2018-09-27T23:16:39.837Z,13.60
2018-09-27T23:19:06.817Z,13.60
2018-09-27T23:21:33.896Z,13.50
2018-09-27T23:24:00.870Z,13.60
2018-09-27T23:26:28.255Z,13.40
2018-09-27T23:28:55.209Z,13.30
2018-09-27T23:31:22.186Z,11.50
2018-09-27T23:33:49.149Z,9.90
2018-09-27T23:36:16.107Z,13.40
2018-09-27T23:38:43.081Z,13.30
2018-09-27T23:41:10.034Z,13.20
2018-09-27T23:43:37.082Z,13.30
2018-09-27T23:46:04.058Z,13.20
2018-09-27T23:48:31.010Z,13.10
2018-09-27T23:50:57.978Z,13.00
2018-09-27T23:53:24.958Z,13.10
2018-09-27T23:55:52.027Z,12.90
2018-09-27T23:58:18.976Z,13.00
